createdAt,value
2019-04-03T00:01:16.082Z,89.83
2019-04-03T00:03:44.687Z,89.76
2019-04-03T00:06:13.468Z,89.67
2019-04-03T00:08:42.181Z,89.41
2019-04-03T00:11:11.524Z,89.43
2019-04-03T00:13:42.236Z,89.41
2019-04-03T00:16:10.398Z,89.44
2019-04-03T00:18:39.057Z,89.53
2019-04-03T00:21:07.717Z,89.44
2019-04-03T00:23:36.578Z,89.52
2019-04-03T00:26:05.155Z,89.39
2019-04-03T00:28:33.859Z,89.32
2019-04-03T00:31:02.766Z,89.42
2019-04-03T00:33:31.346Z,89.44
2019-04-03T00:36:00.057Z,89.54
2019-04-03T00:38:28.575Z,89.71
2019-04-03T00:40:57.435Z,89.91
2019-04-03T00:43:26.284Z,89.81
2019-04-03T00:45:55.194Z,90.07
2019-04-03T00:48:25.838Z,90.20
2019-04-03T00:50:56.312Z,90.09
2019-04-03T00:53:27.337Z,90.14
2019-04-03T00:55:56.469Z,90.23
2019-04-03T00:58:42.854Z,90.18
2019-04-03T01:01:12.547Z,90.09
2019-04-03T01:03:41.476Z,90.03
2019-04-03T01:06:10.395Z,90.12
2019-04-03T01:08:39.010Z,90.14
2019-04-03T01:11:07.737Z,90.06
2019-04-03T01:13:36.685Z,90.28
2019-04-03T01:16:05.909Z,90.11
2019-04-03T01:18:35.389Z,90.15
2019-04-03T01:21:06.151Z,90.15
2019-04-03T01:23:37.071Z,90.07
2019-04-03T01:26:04.818Z,89.58
2019-04-03T01:28:33.413Z,89.23
2019-04-03T01:31:02.199Z,88.81
2019-04-03T01:33:30.869Z,88.81
2019-04-03T01:35:59.465Z,89.21
2019-04-03T01:38:28.304Z,88.98
2019-04-03T01:40:56.887Z,88.33
2019-04-03T01:43:25.595Z,87.85
2019-04-03T01:45:56.521Z,88.05
2019-04-03T01:48:24.479Z,87.90
2019-04-03T01:50:53.230Z,88.07
2019-04-03T01:53:21.947Z,88.14
2019-04-03T01:55:50.487Z,88.19
2019-04-03T01:58:19.269Z,88.10
2019-04-03T02:00:47.914Z,87.33
2019-04-03T02:03:16.575Z,86.86
2019-04-03T02:05:45.263Z,86.56
2019-04-03T02:08:14.552Z,86.14
2019-04-03T02:10:43.692Z,85.89
2019-04-03T02:13:12.277Z,86.04
2019-04-03T02:15:40.851Z,86.41
2019-04-03T02:18:09.429Z,86.05
2019-04-03T02:20:38.008Z,86.05
2019-04-03T02:23:06.580Z,85.36
2019-04-03T02:25:35.144Z,84.81
2019-04-03T02:28:04.521Z,84.47
2019-04-03T02:30:34.185Z,83.72
2019-04-03T02:33:02.767Z,83.42
2019-04-03T02:35:31.636Z,83.27
2019-04-03T02:38:00.287Z,83.34
2019-04-03T02:40:31.208Z,83.39
2019-04-03T02:42:59.358Z,83.53
2019-04-03T02:45:27.932Z,83.37
2019-04-03T02:47:56.619Z,83.21
2019-04-03T02:50:25.841Z,83.15
2019-04-03T02:52:58.144Z,82.94
2019-04-03T02:55:25.805Z,83.07
2019-04-03T02:57:55.276Z,83.09
2019-04-03T03:00:24.150Z,82.90
2019-04-03T03:02:52.902Z,82.72
2019-04-03T03:05:21.917Z,83.10
2019-04-03T03:07:51.383Z,82.88
2019-04-03T03:10:20.550Z,82.86
2019-04-03T03:12:49.768Z,82.91
2019-04-03T03:15:19.933Z,83.04
2019-04-03T03:17:49.780Z,83.15
2019-04-03T03:20:21.264Z,83.58
2019-04-03T03:22:51.146Z,83.51
2019-04-03T03:25:20.969Z,83.84
2019-04-03T03:27:50.141Z,83.73
2019-04-03T03:30:35.880Z,83.68
2019-04-03T03:32:50.633Z,83.94
2019-04-03T03:35:28.118Z,83.72
2019-04-03T03:37:51.084Z,83.85
2019-04-03T03:40:20.262Z,83.98
2019-04-03T03:42:50.385Z,84.06
2019-04-03T03:45:21.677Z,84.24
2019-04-03T03:47:51.321Z,84.39
2019-04-03T03:50:24.502Z,84.58
2019-04-03T03:52:54.306Z,84.47
2019-04-03T03:55:25.441Z,84.29
2019-04-03T03:57:55.627Z,84.40
2019-04-03T04:00:24.995Z,84.41
2019-04-03T04:02:54.151Z,84.71
2019-04-03T04:05:23.013Z,84.97
2019-04-03T04:07:52.062Z,85.07
2019-04-03T04:10:24.071Z,84.95
2019-04-03T04:12:51.743Z,85.36
2019-04-03T04:15:20.406Z,85.32
2019-04-03T04:17:51.057Z,85.64
2019-04-03T04:20:19.848Z,85.54
2019-04-03T04:22:50.449Z,85.54
2019-04-03T04:25:19.237Z,85.38
2019-04-03T04:27:48.829Z,85.47
2019-04-03T04:30:19.133Z,85.46
2019-04-03T04:32:47.712Z,85.75
2019-04-03T04:35:16.363Z,85.90
2019-04-03T04:37:45.980Z,86.10
2019-04-03T04:40:15.046Z,86.50
2019-04-03T04:42:43.776Z,86.58
2019-04-03T04:45:12.579Z,86.58
2019-04-03T04:47:41.227Z,86.58
2019-04-03T04:50:10.194Z,86.57
2019-04-03T04:52:39.045Z,86.41
2019-04-03T04:55:08.003Z,86.65
2019-04-03T04:57:36.903Z,86.69
2019-04-03T05:00:07.176Z,86.76
2019-04-03T05:02:35.824Z,86.71
2019-04-03T05:05:08.457Z,86.85
2019-04-03T05:07:36.863Z,86.88
2019-04-03T05:10:07.031Z,86.85
2019-04-03T05:12:35.615Z,87.16
2019-04-03T05:15:05.011Z,87.11
2019-04-03T05:17:33.727Z,87.17
2019-04-03T05:20:02.485Z,87.38
2019-04-03T05:22:31.095Z,87.21
2019-04-03T05:25:00.041Z,86.98
2019-04-03T05:27:29.036Z,87.07
2019-04-03T05:29:57.707Z,86.93
2019-04-03T05:32:26.322Z,87.00
2019-04-03T05:34:54.865Z,86.60
2019-04-03T05:37:23.611Z,86.90
2019-04-03T05:39:54.722Z,86.61
2019-04-03T05:42:22.757Z,86.53
2019-04-03T05:44:51.335Z,86.14
2019-04-03T05:47:20.275Z,86.08
2019-04-03T05:49:50.684Z,85.80
2019-04-03T05:52:19.363Z,85.56
2019-04-03T05:54:47.903Z,85.77
2019-04-03T05:57:17.343Z,85.69
2019-04-03T05:59:58.967Z,85.48
2019-04-03T06:02:20.160Z,85.33
2019-04-03T06:04:47.175Z,85.32
2019-04-03T06:07:17.475Z,85.52
2019-04-03T06:09:47.566Z,85.70
2019-04-03T06:12:18.663Z,85.77
2019-04-03T06:14:46.576Z,85.80
2019-04-03T06:17:16.694Z,85.59
2019-04-03T06:19:45.217Z,85.72
2019-04-03T06:22:16.543Z,85.31
2019-04-03T06:24:44.641Z,85.14
2019-04-03T06:27:13.410Z,84.97
2019-04-03T06:29:41.961Z,84.85
2019-04-03T06:32:10.547Z,84.81
2019-04-03T06:34:42.495Z,85.03
2019-04-03T06:37:09.446Z,85.23
2019-04-03T06:39:38.021Z,84.88
2019-04-03T06:42:06.762Z,85.37
2019-04-03T06:44:35.391Z,85.57
2019-04-03T06:47:04.212Z,85.44
2019-04-03T06:49:32.871Z,85.39
2019-04-03T06:52:01.503Z,85.55
2019-04-03T06:54:31.980Z,86.43
2019-04-03T06:57:00.569Z,87.14
2019-04-03T06:59:29.398Z,87.73
2019-04-03T07:01:58.127Z,87.70
2019-04-03T07:04:26.936Z,87.46
2019-04-03T07:06:56.655Z,87.53
2019-04-03T07:09:34.002Z,87.85
2019-04-03T07:11:57.384Z,88.58
2019-04-03T07:14:27.118Z,88.15
2019-04-03T07:16:56.041Z,87.92
2019-04-03T07:19:25.489Z,88.16
2019-04-03T07:21:55.174Z,88.31
2019-04-03T07:24:24.625Z,88.26
2019-04-03T07:26:53.225Z,88.44
2019-04-03T07:29:24.917Z,88.73
2019-04-03T07:31:52.801Z,88.84
2019-04-03T07:34:22.443Z,89.85
2019-04-03T07:36:51.110Z,89.63
2019-04-03T07:39:19.946Z,89.69
2019-04-03T07:41:48.667Z,90.08
2019-04-03T07:44:17.560Z,90.85
2019-04-03T07:46:46.301Z,90.93
2019-04-03T07:49:14.982Z,90.26
2019-04-03T07:51:44.426Z,89.88
2019-04-03T07:54:13.289Z,90.43
2019-04-03T07:56:42.005Z,90.86
2019-04-03T07:59:10.802Z,90.88
2019-04-03T08:01:41.362Z,90.99
2019-04-03T08:04:09.946Z,90.74
2019-04-03T08:06:38.826Z,90.72
2019-04-03T08:09:09.932Z,90.74
2019-04-03T08:11:39.000Z,90.68
2019-04-03T08:14:09.125Z,90.17
2019-04-03T08:16:37.886Z,90.13
2019-04-03T08:19:08.188Z,89.71
2019-04-03T08:21:36.784Z,89.80
2019-04-03T08:24:07.452Z,90.08
2019-04-03T08:26:36.087Z,89.89
2019-04-03T08:29:04.859Z,89.68
2019-04-03T08:31:33.445Z,89.52
2019-04-03T08:34:13.975Z,88.42
2019-04-03T08:36:32.363Z,87.97
2019-04-03T08:39:01.232Z,88.24
2019-04-03T08:41:29.988Z,86.27
2019-04-03T08:43:58.597Z,86.47
2019-04-03T08:46:27.172Z,86.94
2019-04-03T08:48:55.898Z,86.63
2019-04-03T08:51:24.619Z,85.40
2019-04-03T08:53:54.768Z,86.19
2019-04-03T08:56:23.800Z,85.11
2019-04-03T08:58:52.538Z,85.19
2019-04-03T09:01:21.232Z,84.57
2019-04-03T09:03:49.839Z,85.16
2019-04-03T09:06:18.471Z,84.82
2019-04-03T09:08:47.050Z,84.76
2019-04-03T09:11:15.658Z,85.05
2019-04-03T09:13:44.229Z,84.89
2019-04-03T09:16:13.219Z,84.64
2019-04-03T09:18:42.143Z,84.79
2019-04-03T09:21:10.911Z,83.96
2019-04-03T09:23:39.566Z,82.71
2019-04-03T09:26:08.342Z,82.44
2019-04-03T09:28:37.107Z,81.99
2019-04-03T09:31:05.865Z,82.54
2019-04-03T09:33:34.430Z,82.42
2019-04-03T09:36:04.374Z,82.14
2019-04-03T09:38:35.516Z,80.39
2019-04-03T09:41:03.464Z,81.19
2019-04-03T09:43:32.172Z,81.69
2019-04-03T09:46:01.053Z,80.57
2019-04-03T09:48:30.299Z,81.38
2019-04-03T09:50:59.991Z,81.41
2019-04-03T09:53:28.780Z,81.73
2019-04-03T09:55:57.331Z,81.91
2019-04-03T09:58:26.274Z,81.77
2019-04-03T10:00:55.208Z,81.57
2019-04-03T10:03:23.949Z,81.64
2019-04-03T10:05:52.637Z,81.48
2019-04-03T10:08:21.596Z,81.45
2019-04-03T10:10:50.248Z,81.47
2019-04-03T10:13:18.935Z,81.41
2019-04-03T10:15:47.509Z,82.04
2019-04-03T10:18:16.239Z,81.89
2019-04-03T10:20:45.296Z,81.94
2019-04-03T10:23:14.170Z,81.57
2019-04-03T10:25:42.856Z,81.78
2019-04-03T10:28:13.774Z,82.93
2019-04-03T10:30:42.277Z,83.16
2019-04-03T10:33:11.003Z,82.67
2019-04-03T10:35:39.878Z,82.73
2019-04-03T10:38:08.599Z,82.90
2019-04-03T10:40:37.523Z,82.13
2019-04-03T10:43:06.782Z,81.75
2019-04-03T10:45:35.383Z,82.42
2019-04-03T10:48:03.962Z,81.59
2019-04-03T10:50:33.039Z,81.47
2019-04-03T10:53:01.653Z,81.04
2019-04-03T10:55:30.472Z,81.35
2019-04-03T10:58:01.615Z,80.03
2019-04-03T11:00:29.961Z,79.61
2019-04-03T11:02:58.678Z,79.41
2019-04-03T11:05:27.828Z,79.73
2019-04-03T11:07:56.395Z,79.54
2019-04-03T11:10:25.632Z,79.31
2019-04-03T11:12:54.561Z,78.56
2019-04-03T11:15:23.538Z,78.99
2019-04-03T11:17:52.183Z,78.82
2019-04-03T11:20:21.780Z,78.83
2019-04-03T11:22:50.719Z,78.04
2019-04-03T11:25:20.918Z,78.39
2019-04-03T11:27:49.606Z,77.67
2019-04-03T11:30:23.644Z,77.83
2019-04-03T11:32:49.609Z,78.22
2019-04-03T11:35:20.804Z,78.43
2019-04-03T11:37:48.940Z,78.47
2019-04-03T11:40:18.943Z,78.67
2019-04-03T11:42:47.577Z,78.05
2019-04-03T11:45:17.119Z,78.01
2019-04-03T11:47:46.406Z,77.08
2019-04-03T11:50:16.786Z,77.19
2019-04-03T11:52:45.521Z,77.14
2019-04-03T11:55:14.576Z,76.22
2019-04-03T11:57:43.241Z,76.13
2019-04-03T12:00:17.605Z,75.47
2019-04-03T12:02:46.500Z,75.78
2019-04-03T12:05:20.190Z,76.60
2019-04-03T12:07:47.967Z,76.01
2019-04-03T12:10:16.936Z,76.12
2019-04-03T12:12:45.963Z,76.26
2019-04-03T12:15:16.404Z,76.38
2019-04-03T12:17:45.579Z,76.76
2019-04-03T12:20:16.530Z,76.72
2019-04-03T12:22:45.302Z,76.67
2019-04-03T12:25:15.102Z,75.78
2019-04-03T12:27:46.045Z,75.95
2019-04-03T12:30:15.121Z,74.71
2019-04-03T12:32:48.740Z,74.85
2019-04-03T12:35:14.396Z,74.26
2019-04-03T12:37:43.045Z,74.61
2019-04-03T12:40:12.587Z,75.21
2019-04-03T12:42:41.301Z,75.35
2019-04-03T12:45:10.747Z,74.44
2019-04-03T12:47:39.470Z,74.53
2019-04-03T12:50:08.600Z,73.97
2019-04-03T12:52:37.705Z,73.57
2019-04-03T12:55:07.982Z,72.91
2019-04-03T12:57:38.905Z,72.48
2019-04-03T13:00:11.469Z,71.38
2019-04-03T13:02:40.145Z,71.39
2019-04-03T13:05:09.005Z,70.71
2019-04-03T13:07:37.683Z,70.21
2019-04-03T13:10:09.026Z,69.85
2019-04-03T13:12:38.035Z,67.57
2019-04-03T13:15:09.813Z,66.49
2019-04-03T13:17:38.458Z,66.24
2019-04-03T13:20:09.146Z,66.38
2019-04-03T13:22:37.983Z,66.72
2019-04-03T13:25:08.639Z,66.70
2019-04-03T13:27:37.660Z,67.25
2019-04-03T13:30:11.994Z,67.80
2019-04-03T13:32:40.870Z,69.42
2019-04-03T13:35:09.730Z,70.83
2019-04-03T13:37:38.268Z,71.45
2019-04-03T13:40:10.066Z,71.89
2019-04-03T13:42:38.714Z,72.10
2019-04-03T13:45:08.460Z,72.94
2019-04-03T13:47:40.204Z,72.50
2019-04-03T13:50:10.874Z,72.40
2019-04-03T13:52:43.189Z,73.17
2019-04-03T13:55:09.960Z,72.65
2019-04-03T13:57:39.508Z,72.94
2019-04-03T14:00:20.573Z,73.36
2019-04-03T14:02:40.933Z,73.38
2019-04-03T14:05:09.862Z,74.02
2019-04-03T14:07:41.667Z,74.25
2019-04-03T14:10:10.208Z,74.22
2019-04-03T14:12:43.213Z,74.43
2019-04-03T14:15:09.779Z,74.38
2019-04-03T14:17:38.655Z,74.25
2019-04-03T14:20:09.101Z,74.21
2019-04-03T14:22:37.833Z,74.16
2019-04-03T14:25:17.972Z,73.97
2019-04-03T14:27:38.839Z,74.30
2019-04-03T14:30:11.114Z,74.03
2019-04-03T14:32:40.082Z,73.27
2019-04-03T14:35:38.454Z,72.57
2019-04-03T14:37:39.786Z,72.41
2019-04-03T14:40:11.517Z,72.29
2019-04-03T14:42:39.360Z,71.67
2019-04-03T14:45:13.366Z,71.63
2019-04-03T14:47:40.733Z,72.33
2019-04-03T14:50:10.178Z,71.33
2019-04-03T14:52:38.852Z,71.42
2019-04-03T14:55:18.068Z,71.43
2019-04-03T14:57:38.389Z,71.51
2019-04-03T15:00:24.956Z,71.55
2019-04-03T15:02:41.179Z,70.86
2019-04-03T15:05:10.824Z,70.68
2019-04-03T15:07:40.437Z,71.20
2019-04-03T15:10:10.731Z,71.22
2019-04-03T15:12:40.696Z,71.27
2019-04-03T15:15:09.952Z,71.23
2019-04-03T15:17:38.893Z,71.10
2019-04-03T15:20:09.636Z,71.35
2019-04-03T15:22:38.330Z,71.75
2019-04-03T15:25:07.534Z,71.43
2019-04-03T15:27:36.116Z,71.16
2019-04-03T15:30:10.015Z,71.03
2019-04-03T15:32:38.240Z,70.85
2019-04-03T15:35:07.233Z,70.68
2019-04-03T15:37:36.137Z,70.40
2019-04-03T15:40:07.290Z,70.82
2019-04-03T15:42:38.447Z,70.65
2019-04-03T15:45:09.096Z,70.65
2019-04-03T15:47:41.767Z,69.96
2019-04-03T15:50:09.771Z,69.92
2019-04-03T15:52:38.737Z,70.38
2019-04-03T15:55:08.427Z,70.13
2019-04-03T15:57:39.651Z,70.08
2019-04-03T16:00:13.006Z,70.44
2019-04-03T16:02:44.451Z,71.15
2019-04-03T16:05:13.035Z,71.13
2019-04-03T16:07:42.662Z,70.90
2019-04-03T16:10:11.819Z,71.04
2019-04-03T16:12:42.922Z,71.88
2019-04-03T16:15:11.690Z,71.76
2019-04-03T16:17:41.304Z,72.04
2019-04-03T16:20:11.392Z,72.22
2019-04-03T16:22:40.495Z,72.12
2019-04-03T16:25:09.860Z,72.35
2019-04-03T16:27:38.503Z,72.61
2019-04-03T16:30:09.561Z,72.05
2019-04-03T16:32:39.389Z,72.93
2019-04-03T16:35:12.720Z,72.91
2019-04-03T16:37:40.374Z,72.83
2019-04-03T16:40:10.103Z,73.17
2019-04-03T16:42:39.439Z,73.23
2019-04-03T16:45:09.858Z,72.89
2019-04-03T16:47:39.091Z,72.47
2019-04-03T16:50:10.063Z,73.29
2019-04-03T16:52:39.145Z,72.75
2019-04-03T16:55:09.140Z,72.88
2019-04-03T16:57:38.139Z,73.21
2019-04-03T17:00:10.069Z,73.59
2019-04-03T17:02:39.245Z,74.08
2019-04-03T17:05:11.197Z,74.62
2019-04-03T17:07:40.459Z,74.76
2019-04-03T17:10:10.555Z,75.62
2019-04-03T17:12:40.069Z,76.12
2019-04-03T17:15:10.823Z,76.64
2019-04-03T17:17:39.405Z,76.36
2019-04-03T17:20:09.410Z,77.20
2019-04-03T17:22:40.711Z,78.25
2019-04-03T17:25:10.627Z,78.38
2019-04-03T17:27:39.393Z,78.74
2019-04-03T17:30:08.889Z,78.83
2019-04-03T17:32:37.660Z,78.67
2019-04-03T17:35:07.827Z,78.93
2019-04-03T17:37:36.835Z,79.70
2019-04-03T17:40:08.698Z,79.42
2019-04-03T17:42:39.248Z,79.24
2019-04-03T17:45:08.123Z,79.79
2019-04-03T17:47:36.756Z,79.15
2019-04-03T17:50:07.305Z,78.94
2019-04-03T17:52:36.543Z,77.98
2019-04-03T17:55:10.916Z,79.03
2019-04-03T17:57:39.823Z,78.82
2019-04-03T18:00:14.294Z,79.07
2019-04-03T18:02:42.869Z,79.71
2019-04-03T18:05:12.029Z,79.66
2019-04-03T18:07:40.997Z,79.50
2019-04-03T18:10:12.781Z,79.92
2019-04-03T18:12:41.070Z,80.31
2019-04-03T18:15:11.160Z,80.33
2019-04-03T18:17:40.231Z,80.92
2019-04-03T18:20:12.812Z,80.85
2019-04-03T18:22:41.469Z,81.63
2019-04-03T18:25:10.394Z,81.94
2019-04-03T18:27:39.123Z,81.75
2019-04-03T18:30:11.793Z,81.45
2019-04-03T18:32:40.062Z,82.18
2019-04-03T18:35:09.409Z,82.44
2019-04-03T18:37:40.603Z,82.26
2019-04-03T18:40:13.962Z,83.17
2019-04-03T18:42:41.288Z,82.89
2019-04-03T18:45:10.803Z,83.14
2019-04-03T18:47:41.571Z,83.08
2019-04-03T18:50:10.482Z,83.14
2019-04-03T18:52:39.516Z,83.65
2019-04-03T18:55:08.192Z,83.58
2019-04-03T18:57:36.984Z,84.06
2019-04-03T19:00:10.652Z,83.71
2019-04-03T19:02:39.466Z,84.36
2019-04-03T19:05:13.604Z,84.58
2019-04-03T19:07:39.820Z,84.55
2019-04-03T19:10:08.723Z,84.52
2019-04-03T19:12:37.785Z,84.70
2019-04-03T19:15:07.667Z,84.85
2019-04-03T19:17:36.512Z,85.08
2019-04-03T19:20:10.759Z,85.08
2019-04-03T19:22:39.668Z,85.09
2019-04-03T19:25:09.399Z,85.36
2019-04-03T19:27:38.732Z,85.42
2019-04-03T19:30:09.526Z,85.42
2019-04-03T19:32:39.031Z,85.58
2019-04-03T19:35:10.044Z,85.43
2019-04-03T19:37:40.065Z,85.70
2019-04-03T19:40:10.590Z,85.66
2019-04-03T19:42:43.514Z,85.78
2019-04-03T19:45:13.120Z,85.85
2019-04-03T19:47:42.377Z,85.93
2019-04-03T19:50:11.638Z,86.25
2019-04-03T19:52:42.176Z,86.50
2019-04-03T19:55:10.841Z,86.39
2019-04-03T19:57:39.499Z,86.50
2019-04-03T20:00:11.881Z,86.82
2019-04-03T20:02:42.917Z,86.94
2019-04-03T20:05:11.616Z,86.91
2019-04-03T20:07:41.324Z,87.09
2019-04-03T20:10:11.396Z,87.03
2019-04-03T20:12:40.769Z,86.85
2019-04-03T20:15:11.701Z,86.88
2019-04-03T20:17:41.773Z,87.12
2019-04-03T20:20:11.833Z,86.88
2019-04-03T20:22:42.409Z,87.00
2019-04-03T20:25:14.554Z,87.18
2019-04-03T20:27:42.291Z,87.36
2019-04-03T20:30:11.444Z,87.44
2019-04-03T20:32:40.894Z,87.42
2019-04-03T20:35:09.618Z,87.52
2019-04-03T20:37:38.252Z,87.65
2019-04-03T20:40:07.120Z,87.80
2019-04-03T20:42:36.188Z,87.94
2019-04-03T20:45:06.883Z,88.09
2019-04-03T20:47:35.560Z,88.29
2019-04-03T20:50:08.063Z,88.27
2019-04-03T20:52:36.661Z,88.54
2019-04-03T20:55:06.747Z,88.43
2019-04-03T20:57:35.346Z,88.52
2019-04-03T21:00:06.888Z,88.69
2019-04-03T21:02:35.432Z,88.58
2019-04-03T21:05:07.521Z,88.77
2019-04-03T21:07:34.922Z,89.01
2019-04-03T21:10:04.668Z,89.24
2019-04-03T21:12:33.864Z,89.24
2019-04-03T21:15:08.783Z,89.48
2019-04-03T21:17:33.973Z,89.52
2019-04-03T21:20:02.571Z,89.69
2019-04-03T21:22:31.151Z,89.83
2019-04-03T21:24:59.976Z,89.69
2019-04-03T21:27:28.541Z,90.06
2019-04-03T21:29:58.275Z,90.10
2019-04-03T21:32:28.817Z,90.07
2019-04-03T21:34:57.314Z,90.22
2019-04-03T21:37:25.958Z,90.24
2019-04-03T21:39:54.580Z,90.21
2019-04-03T21:42:23.146Z,90.27
2019-04-03T21:44:51.720Z,90.41
2019-04-03T21:47:20.290Z,90.39
2019-04-03T21:49:48.916Z,90.53
2019-04-03T21:52:17.580Z,90.50
2019-04-03T21:54:46.517Z,90.35
2019-04-03T21:57:15.086Z,90.33
2019-04-03T21:59:43.657Z,90.22
2019-04-03T22:02:12.268Z,90.26
2019-04-03T22:04:42.549Z,90.28
2019-04-03T22:07:11.131Z,90.50
2019-04-03T22:09:39.701Z,90.58
2019-04-03T22:12:08.286Z,90.55
2019-04-03T22:14:36.855Z,90.62
2019-04-03T22:17:05.526Z,90.62
2019-04-03T22:19:34.093Z,90.85
2019-04-03T22:22:03.076Z,91.04
2019-04-03T22:24:32.259Z,91.10
2019-04-03T22:27:00.855Z,91.01
2019-04-03T22:29:29.450Z,91.01
2019-04-03T22:31:58.062Z,91.05
2019-04-03T22:34:27.946Z,91.02
2019-04-03T22:36:56.963Z,91.28
2019-04-03T22:39:25.569Z,91.51
2019-04-03T22:41:54.648Z,91.42
2019-04-03T22:44:23.218Z,91.59
2019-04-03T22:46:52.033Z,91.74
2019-04-03T22:49:22.197Z,91.47
2019-04-03T22:51:50.778Z,91.58
2019-04-03T22:54:19.729Z,91.50
2019-04-03T22:56:48.434Z,91.33
2019-04-03T22:59:17.053Z,91.52
2019-04-03T23:01:45.646Z,91.35
2019-04-03T23:04:14.217Z,91.16
2019-04-03T23:06:42.811Z,91.16
2019-04-03T23:09:11.408Z,91.24
2019-04-03T23:11:39.999Z,91.32
2019-04-03T23:14:08.717Z,91.38
2019-04-03T23:16:37.313Z,91.44
2019-04-03T23:19:05.956Z,91.27
2019-04-03T23:21:34.552Z,91.21
2019-04-03T23:24:03.122Z,91.05
2019-04-03T23:26:32.817Z,91.30
2019-04-03T23:29:03.066Z,91.00
2019-04-03T23:31:31.905Z,91.12
2019-04-03T23:34:00.494Z,91.18
2019-04-03T23:36:29.099Z,91.02
2019-04-03T23:38:57.689Z,91.00
2019-04-03T23:41:26.303Z,91.05
2019-04-03T23:43:54.892Z,90.95
2019-04-03T23:46:23.502Z,91.02
2019-04-03T23:48:52.122Z,90.93
2019-04-03T23:51:23.271Z,90.73
2019-04-03T23:53:51.169Z,90.90
2019-04-03T23:56:19.751Z,90.97
2019-04-03T23:58:48.330Z,90.90
